sensor_id;sensor_type;location;lat;lon;timestamp;temperature;humidity
13093;DHT22;6612;49.568;11.000;2022-12-18T00:02:01;-6.20;53.20
13093;DHT22;6612;49.568;11.000;2022-12-18T00:04:29;-6.20;53.20
13093;DHT22;6612;49.568;11.000;2022-12-18T00:06:56;-6.20;53.20
13093;DHT22;6612;49.568;11.000;2022-12-18T00:09:23;-6.20;53.20
13093;DHT22;6612;49.568;11.000;2022-12-18T00:11:50;-6.20;53.20
13093;DHT22;6612;49.568;11.000;2022-12-18T00:14:19;-6.20;53.20
13093;DHT22;6612;49.568;11.000;2022-12-18T00:16:46;-6.20;53.20
13093;DHT22;6612;49.568;11.000;2022-12-18T00:19:14;-6.20;53.20
13093;DHT22;6612;49.568;11.000;2022-12-18T00:21:42;-6.30;53.10
13093;DHT22;6612;49.568;11.000;2022-12-18T00:24:10;-6.30;53.10
13093;DHT22;6612;49.568;11.000;2022-12-18T00:26:38;-6.30;53.00
13093;DHT22;6612;49.568;11.000;2022-12-18T00:29:08;-6.30;53.10
13093;DHT22;6612;49.568;11.000;2022-12-18T00:31:37;-6.30;53.10
13093;DHT22;6612;49.568;11.000;2022-12-18T00:34:04;-6.30;53.10
13093;DHT22;6612;49.568;11.000;2022-12-18T00:36:33;-6.30;53.20
13093;DHT22;6612;49.568;11.000;2022-12-18T00:39:01;-6.30;53.10
13093;DHT22;6612;49.568;11.000;2022-12-18T00:41:29;-6.40;53.10
13093;DHT22;6612;49.568;11.000;2022-12-18T00:44:15;-6.40;53.10
13093;DHT22;6612;49.568;11.000;2022-12-18T00:46:44;-6.40;53.10
13093;DHT22;6612;49.568;11.000;2022-12-18T00:49:11;-6.40;53.00
13093;DHT22;6612;49.568;11.000;2022-12-18T00:51:40;-6.40;53.00
13093;DHT22;6612;49.568;11.000;2022-12-18T00:54:07;-6.40;53.00
13093;DHT22;6612;49.568;11.000;2022-12-18T00:56:35;-6.40;52.90
13093;DHT22;6612;49.568;11.000;2022-12-18T00:59:03;-6.40;52.90
13093;DHT22;6612;49.568;11.000;2022-12-18T01:01:30;-6.50;52.80
13093;DHT22;6612;49.568;11.000;2022-12-18T01:03:59;-6.50;52.80
13093;DHT22;6612;49.568;11.000;2022-12-18T01:06:27;-6.50;52.80
13093;DHT22;6612;49.568;11.000;2022-12-18T01:08:54;-6.50;52.90
13093;DHT22;6612;49.568;11.000;2022-12-18T01:11:22;-6.50;52.90
13093;DHT22;6612;49.568;11.000;2022-12-18T01:13:49;-6.50;52.90
13093;DHT22;6612;49.568;11.000;2022-12-18T01:16:18;-6.50;52.90
13093;DHT22;6612;49.568;11.000;2022-12-18T01:18:45;-6.60;52.90
13093;DHT22;6612;49.568;11.000;2022-12-18T01:21:15;-6.60;52.90
13093;DHT22;6612;49.568;11.000;2022-12-18T01:23:42;-6.60;52.90
13093;DHT22;6612;49.568;11.000;2022-12-18T01:26:14;-6.60;52.90
13093;DHT22;6612;49.568;11.000;2022-12-18T01:28:43;-6.60;53.60
13093;DHT22;6612;49.568;11.000;2022-12-18T01:31:16;-6.70;52.90
13093;DHT22;6612;49.568;11.000;2022-12-18T01:33:44;-6.60;53.10
13093;DHT22;6612;49.568;11.000;2022-12-18T01:36:20;-6.60;52.90
13093;DHT22;6612;49.568;11.000;2022-12-18T01:38:49;-6.60;52.90
13093;DHT22;6612;49.568;11.000;2022-12-18T01:41:18;-6.70;52.80
13093;DHT22;6612;49.568;11.000;2022-12-18T01:43:49;-6.70;52.90
13093;DHT22;6612;49.568;11.000;2022-12-18T01:46:18;-6.70;52.90
13093;DHT22;6612;49.568;11.000;2022-12-18T01:48:48;-6.70;52.80
13093;DHT22;6612;49.568;11.000;2022-12-18T01:51:19;-6.70;52.80
13093;DHT22;6612;49.568;11.000;2022-12-18T01:53:47;-6.70;52.80
13093;DHT22;6612;49.568;11.000;2022-12-18T01:56:16;-6.70;52.80
13093;DHT22;6612;49.568;11.000;2022-12-18T01:58:51;-6.70;52.80
13093;DHT22;6612;49.568;11.000;2022-12-18T02:01:21;-6.70;53.00
13093;DHT22;6612;49.568;11.000;2022-12-18T02:03:49;-6.70;52.80
13093;DHT22;6612;49.568;11.000;2022-12-18T02:06:19;-6.70;52.80
13093;DHT22;6612;49.568;11.000;2022-12-18T02:09:00;-6.80;52.70
13093;DHT22;6612;49.568;11.000;2022-12-18T02:11:37;-6.80;52.70
13093;DHT22;6612;49.568;11.000;2022-12-18T02:14:16;-6.80;52.70
13093;DHT22;6612;49.568;11.000;2022-12-18T02:16:50;-6.80;52.70
13093;DHT22;6612;49.568;11.000;2022-12-18T02:22:21;-6.80;53.30
13093;DHT22;6612;49.568;11.000;2022-12-18T02:25:02;-6.80;52.60
13093;DHT22;6612;49.568;11.000;2022-12-18T02:27:33;-6.80;52.50
13093;DHT22;6612;49.568;11.000;2022-12-18T02:30:02;-6.90;52.40
13093;DHT22;6612;49.568;11.000;2022-12-18T02:32:33;-6.90;52.40
13093;DHT22;6612;49.568;11.000;2022-12-18T02:35:04;-6.90;52.50
13093;DHT22;6612;49.568;11.000;2022-12-18T02:37:33;-6.90;52.50
13093;DHT22;6612;49.568;11.000;2022-12-18T02:40:03;-6.90;52.60
13093;DHT22;6612;49.568;11.000;2022-12-18T02:42:32;-6.90;52.80
13093;DHT22;6612;49.568;11.000;2022-12-18T02:44:59;-6.90;53.00
13093;DHT22;6612;49.568;11.000;2022-12-18T02:47:30;-6.90;53.30
13093;DHT22;6612;49.568;11.000;2022-12-18T02:50:03;-6.90;53.70
13093;DHT22;6612;49.568;11.000;2022-12-18T02:52:36;-6.80;54.00
13093;DHT22;6612;49.568;11.000;2022-12-18T02:55:17;-6.70;54.30
13093;DHT22;6612;49.568;11.000;2022-12-18T02:57:51;-6.70;54.50
13093;DHT22;6612;49.568;11.000;2022-12-18T03:00:22;-6.60;54.70
13093;DHT22;6612;49.568;11.000;2022-12-18T03:02:54;-6.60;54.70
13093;DHT22;6612;49.568;11.000;2022-12-18T03:05:27;-6.50;54.80
13093;DHT22;6612;49.568;11.000;2022-12-18T03:07:57;-6.50;54.80
13093;DHT22;6612;49.568;11.000;2022-12-18T03:10:28;-6.40;54.90
13093;DHT22;6612;49.568;11.000;2022-12-18T03:13:02;-6.40;54.90
13093;DHT22;6612;49.568;11.000;2022-12-18T03:15:34;-6.30;54.90
13093;DHT22;6612;49.568;11.000;2022-12-18T03:18:05;-6.30;54.90
13093;DHT22;6612;49.568;11.000;2022-12-18T03:20:35;-6.30;54.70
13093;DHT22;6612;49.568;11.000;2022-12-18T03:23:09;-6.20;54.70
13093;DHT22;6612;49.568;11.000;2022-12-18T03:25:40;-6.20;54.60
13093;DHT22;6612;49.568;11.000;2022-12-18T03:28:12;-6.20;54.40
13093;DHT22;6612;49.568;11.000;2022-12-18T03:30:43;-6.20;54.30
13093;DHT22;6612;49.568;11.000;2022-12-18T03:33:16;-6.30;54.10
13093;DHT22;6612;49.568;11.000;2022-12-18T03:35:45;-6.30;54.00
13093;DHT22;6612;49.568;11.000;2022-12-18T03:38:12;-6.30;53.90
13093;DHT22;6612;49.568;11.000;2022-12-18T03:40:47;-6.30;53.80
13093;DHT22;6612;49.568;11.000;2022-12-18T03:43:23;-6.30;53.80
13093;DHT22;6612;49.568;11.000;2022-12-18T03:45:53;-6.30;53.80
13093;DHT22;6612;49.568;11.000;2022-12-18T03:48:27;-6.40;53.80
13093;DHT22;6612;49.568;11.000;2022-12-18T03:50:57;-6.40;53.90
13093;DHT22;6612;49.568;11.000;2022-12-18T03:53:33;-6.40;54.00
13093;DHT22;6612;49.568;11.000;2022-12-18T03:56:02;-6.40;54.20
13093;DHT22;6612;49.568;11.000;2022-12-18T03:58:33;-6.30;54.60
13093;DHT22;6612;49.568;11.000;2022-12-18T04:01:05;-6.30;54.80
13093;DHT22;6612;49.568;11.000;2022-12-18T04:03:36;-6.20;55.00
13093;DHT22;6612;49.568;11.000;2022-12-18T04:06:05;-6.20;55.20
13093;DHT22;6612;49.568;11.000;2022-12-18T04:08:33;-6.10;55.40
13093;DHT22;6612;49.568;11.000;2022-12-18T04:11:02;-6.10;55.60
13093;DHT22;6612;49.568;11.000;2022-12-18T04:13:33;-6.00;55.90
13093;DHT22;6612;49.568;11.000;2022-12-18T04:16:01;-5.90;56.10
13093;DHT22;6612;49.568;11.000;2022-12-18T04:18:28;-5.80;56.30
13093;DHT22;6612;49.568;11.000;2022-12-18T04:20:55;-5.70;56.50
13093;DHT22;6612;49.568;11.000;2022-12-18T04:23:22;-5.60;56.60
13093;DHT22;6612;49.568;11.000;2022-12-18T04:25:49;-5.50;56.70
13093;DHT22;6612;49.568;11.000;2022-12-18T04:28:16;-5.50;56.70
13093;DHT22;6612;49.568;11.000;2022-12-18T04:30:45;-5.40;56.80
13093;DHT22;6612;49.568;11.000;2022-12-18T04:33:15;-5.30;56.90
13093;DHT22;6612;49.568;11.000;2022-12-18T04:35:45;-5.20;57.00
13093;DHT22;6612;49.568;11.000;2022-12-18T04:38:12;-5.20;57.10
13093;DHT22;6612;49.568;11.000;2022-12-18T04:40:40;-5.10;57.30
13093;DHT22;6612;49.568;11.000;2022-12-18T04:43:08;-5.00;57.50
13093;DHT22;6612;49.568;11.000;2022-12-18T04:45:35;-4.90;57.50
13093;DHT22;6612;49.568;11.000;2022-12-18T04:48:04;-4.80;57.70
13093;DHT22;6612;49.568;11.000;2022-12-18T04:50:31;-4.80;57.70
13093;DHT22;6612;49.568;11.000;2022-12-18T04:52:59;-4.70;57.80
13093;DHT22;6612;49.568;11.000;2022-12-18T04:55:26;-4.60;57.80
13093;DHT22;6612;49.568;11.000;2022-12-18T04:57:54;-4.50;57.90
13093;DHT22;6612;49.568;11.000;2022-12-18T05:00:21;-4.50;57.90
13093;DHT22;6612;49.568;11.000;2022-12-18T05:02:49;-4.40;57.90
13093;DHT22;6612;49.568;11.000;2022-12-18T05:05:18;-4.30;58.00
13093;DHT22;6612;49.568;11.000;2022-12-18T05:07:45;-4.30;57.90
13093;DHT22;6612;49.568;11.000;2022-12-18T05:10:12;-4.30;57.90
13093;DHT22;6612;49.568;11.000;2022-12-18T05:12:39;-4.20;57.90
13093;DHT22;6612;49.568;11.000;2022-12-18T05:15:24;-4.10;57.90
13093;DHT22;6612;49.568;11.000;2022-12-18T05:17:51;-4.10;57.80
13093;DHT22;6612;49.568;11.000;2022-12-18T05:20:19;-4.10;57.80
13093;DHT22;6612;49.568;11.000;2022-12-18T05:22:46;-4.00;57.70
13093;DHT22;6612;49.568;11.000;2022-12-18T05:25:13;-4.00;57.60
13093;DHT22;6612;49.568;11.000;2022-12-18T05:27:41;-3.90;57.60
13093;DHT22;6612;49.568;11.000;2022-12-18T05:30:09;-3.90;57.60
13093;DHT22;6612;49.568;11.000;2022-12-18T05:32:36;-3.90;57.60
13093;DHT22;6612;49.568;11.000;2022-12-18T05:35:06;-3.90;57.50
13093;DHT22;6612;49.568;11.000;2022-12-18T05:37:34;-3.90;57.50
13093;DHT22;6612;49.568;11.000;2022-12-18T05:40:02;-3.90;57.40
13093;DHT22;6612;49.568;11.000;2022-12-18T05:42:29;-3.80;57.50
13093;DHT22;6612;49.568;11.000;2022-12-18T05:44:56;-3.80;57.50
13093;DHT22;6612;49.568;11.000;2022-12-18T05:47:23;-3.80;57.50
13093;DHT22;6612;49.568;11.000;2022-12-18T05:49:50;-3.80;57.50
13093;DHT22;6612;49.568;11.000;2022-12-18T05:52:17;-3.80;57.50
13093;DHT22;6612;49.568;11.000;2022-12-18T05:54:45;-3.70;57.50
13093;DHT22;6612;49.568;11.000;2022-12-18T05:57:12;-3.70;57.60
13093;DHT22;6612;49.568;11.000;2022-12-18T05:59:39;-3.70;57.60
13093;DHT22;6612;49.568;11.000;2022-12-18T06:02:06;-3.70;57.50
13093;DHT22;6612;49.568;11.000;2022-12-18T06:04:33;-3.70;57.50
13093;DHT22;6612;49.568;11.000;2022-12-18T06:07:00;-3.60;57.50
13093;DHT22;6612;49.568;11.000;2022-12-18T06:09:30;-3.60;57.50
13093;DHT22;6612;49.568;11.000;2022-12-18T06:11:58;-3.60;57.40
13093;DHT22;6612;49.568;11.000;2022-12-18T06:14:25;-3.60;57.40
13093;DHT22;6612;49.568;11.000;2022-12-18T06:16:52;-3.60;57.40
13093;DHT22;6612;49.568;11.000;2022-12-18T06:19:19;-3.60;57.40
13093;DHT22;6612;49.568;11.000;2022-12-18T06:21:46;-3.60;57.40
13093;DHT22;6612;49.568;11.000;2022-12-18T06:24:14;-3.60;57.40
13093;DHT22;6612;49.568;11.000;2022-12-18T06:26:41;-3.50;57.50
13093;DHT22;6612;49.568;11.000;2022-12-18T06:29:10;-3.50;57.40
13093;DHT22;6612;49.568;11.000;2022-12-18T06:31:37;-3.50;57.40
13093;DHT22;6612;49.568;11.000;2022-12-18T06:34:04;-3.50;57.50
13093;DHT22;6612;49.568;11.000;2022-12-18T06:36:31;-3.50;57.50
13093;DHT22;6612;49.568;11.000;2022-12-18T06:38:58;-3.50;57.50
13093;DHT22;6612;49.568;11.000;2022-12-18T06:41:26;-3.50;57.60
13093;DHT22;6612;49.568;11.000;2022-12-18T06:43:52;-3.40;57.80
13093;DHT22;6612;49.568;11.000;2022-12-18T06:46:21;-3.40;57.90
13093;DHT22;6612;49.568;11.000;2022-12-18T06:48:48;-3.40;58.00
13093;DHT22;6612;49.568;11.000;2022-12-18T06:51:18;-3.40;58.10
13093;DHT22;6612;49.568;11.000;2022-12-18T06:53:44;-3.30;58.30
13093;DHT22;6612;49.568;11.000;2022-12-18T06:56:11;-3.30;58.40
13093;DHT22;6612;49.568;11.000;2022-12-18T06:58:39;-3.30;58.60
13093;DHT22;6612;49.568;11.000;2022-12-18T07:01:07;-3.20;58.70
13093;DHT22;6612;49.568;11.000;2022-12-18T07:03:36;-3.10;58.80
13093;DHT22;6612;49.568;11.000;2022-12-18T07:06:03;-3.10;58.90
13093;DHT22;6612;49.568;11.000;2022-12-18T07:08:31;-3.00;59.00
13093;DHT22;6612;49.568;11.000;2022-12-18T07:10:58;-3.00;59.00
13093;DHT22;6612;49.568;11.000;2022-12-18T07:13:25;-2.90;59.10
13093;DHT22;6612;49.568;11.000;2022-12-18T07:15:52;-2.90;59.10
13093;DHT22;6612;49.568;11.000;2022-12-18T07:18:19;-2.80;59.20
13093;DHT22;6612;49.568;11.000;2022-12-18T07:20:47;-2.70;59.30
13093;DHT22;6612;49.568;11.000;2022-12-18T07:23:14;-2.70;59.20
13093;DHT22;6612;49.568;11.000;2022-12-18T07:25:41;-2.70;59.20
13093;DHT22;6612;49.568;11.000;2022-12-18T07:28:08;-2.60;59.20
13093;DHT22;6612;49.568;11.000;2022-12-18T07:30:37;-2.60;59.20
13093;DHT22;6612;49.568;11.000;2022-12-18T07:33:03;-2.50;59.40
13093;DHT22;6612;49.568;11.000;2022-12-18T07:35:30;-2.50;59.30
13093;DHT22;6612;49.568;11.000;2022-12-18T07:38:03;-2.40;59.40
13093;DHT22;6612;49.568;11.000;2022-12-18T07:40:30;-2.40;59.40
13093;DHT22;6612;49.568;11.000;2022-12-18T07:42:57;-2.30;59.50
13093;DHT22;6612;49.568;11.000;2022-12-18T07:45:23;-2.30;59.60
13093;DHT22;6612;49.568;11.000;2022-12-18T07:47:50;-2.30;59.60
13093;DHT22;6612;49.568;11.000;2022-12-18T07:50:17;-2.20;59.70
13093;DHT22;6612;49.568;11.000;2022-12-18T07:52:44;-2.20;59.70
13093;DHT22;6612;49.568;11.000;2022-12-18T07:58:00;-2.00;60.00
13093;DHT22;6612;49.568;11.000;2022-12-18T08:00:28;-2.00;60.10
13093;DHT22;6612;49.568;11.000;2022-12-18T08:02:55;-1.90;60.20
13093;DHT22;6612;49.568;11.000;2022-12-18T08:05:22;-1.90;61.00
13093;DHT22;6612;49.568;11.000;2022-12-18T08:07:49;-1.80;60.30
13093;DHT22;6612;49.568;11.000;2022-12-18T08:10:16;-1.80;60.30
13093;DHT22;6612;49.568;11.000;2022-12-18T08:12:43;-1.70;60.40
13093;DHT22;6612;49.568;11.000;2022-12-18T08:15:11;-1.60;60.60
13093;DHT22;6612;49.568;11.000;2022-12-18T08:17:38;-1.60;60.70
13093;DHT22;6612;49.568;11.000;2022-12-18T08:20:06;-1.60;60.70
13093;DHT22;6612;49.568;11.000;2022-12-18T08:22:34;-1.50;60.70
13093;DHT22;6612;49.568;11.000;2022-12-18T08:25:05;-1.40;60.80
13093;DHT22;6612;49.568;11.000;2022-12-18T08:27:32;-1.40;60.80
13093;DHT22;6612;49.568;11.000;2022-12-18T08:29:59;-1.30;60.90
13093;DHT22;6612;49.568;11.000;2022-12-18T08:32:27;-1.30;60.90
13093;DHT22;6612;49.568;11.000;2022-12-18T08:34:54;-1.20;61.00
13093;DHT22;6612;49.568;11.000;2022-12-18T08:37:21;-1.10;61.10
13093;DHT22;6612;49.568;11.000;2022-12-18T08:39:48;-1.10;61.10
13093;DHT22;6612;49.568;11.000;2022-12-18T08:42:15;-1.00;61.20
13093;DHT22;6612;49.568;11.000;2022-12-18T08:44:59;-0.90;61.30
13093;DHT22;6612;49.568;11.000;2022-12-18T08:47:28;-0.80;61.30
13093;DHT22;6612;49.568;11.000;2022-12-18T08:49:55;-0.80;61.20
13093;DHT22;6612;49.568;11.000;2022-12-18T08:52:22;-0.60;61.40
13093;DHT22;6612;49.568;11.000;2022-12-18T08:54:49;-0.70;61.30
13093;DHT22;6612;49.568;11.000;2022-12-18T08:57:15;-0.60;61.40
13093;DHT22;6612;49.568;11.000;2022-12-18T08:59:42;-0.60;61.30
13093;DHT22;6612;49.568;11.000;2022-12-18T09:02:10;-0.50;61.40
13093;DHT22;6612;49.568;11.000;2022-12-18T09:04:38;-0.40;61.50
13093;DHT22;6612;49.568;11.000;2022-12-18T09:07:06;-0.40;61.40
13093;DHT22;6612;49.568;11.000;2022-12-18T09:09:33;-0.30;62.40
13093;DHT22;6612;49.568;11.000;2022-12-18T09:11:59;-0.30;61.70
13093;DHT22;6612;49.568;11.000;2022-12-18T09:14:26;-0.20;61.80
13093;DHT22;6612;49.568;11.000;2022-12-18T09:16:53;-0.10;61.80
13093;DHT22;6612;49.568;11.000;2022-12-18T09:19:20;-0.10;61.60
13093;DHT22;6612;49.568;11.000;2022-12-18T09:21:48;-0.10;61.50
13093;DHT22;6612;49.568;11.000;2022-12-18T09:24:16;0.00;61.60
13093;DHT22;6612;49.568;11.000;2022-12-18T09:26:43;0.00;61.60
13093;DHT22;6612;49.568;11.000;2022-12-18T09:29:10;0.10;61.70
13093;DHT22;6612;49.568;11.000;2022-12-18T09:31:38;0.10;61.70
13093;DHT22;6612;49.568;11.000;2022-12-18T09:34:06;0.20;61.70
13093;DHT22;6612;49.568;11.000;2022-12-18T09:36:33;0.20;61.70
13093;DHT22;6612;49.568;11.000;2022-12-18T09:39:02;0.30;61.60
13093;DHT22;6612;49.568;11.000;2022-12-18T09:41:43;0.40;61.70
13093;DHT22;6612;49.568;11.000;2022-12-18T09:44:17;0.40;61.40
13093;DHT22;6612;49.568;11.000;2022-12-18T09:46:48;0.50;61.50
13093;DHT22;6612;49.568;11.000;2022-12-18T09:49:18;0.50;61.50
13093;DHT22;6612;49.568;11.000;2022-12-18T09:51:50;0.50;61.60
13093;DHT22;6612;49.568;11.000;2022-12-18T09:54:24;0.60;61.60
13093;DHT22;6612;49.568;11.000;2022-12-18T09:56:52;0.70;61.60
13093;DHT22;6612;49.568;11.000;2022-12-18T09:59:23;0.70;61.30
13093;DHT22;6612;49.568;11.000;2022-12-18T10:01:50;0.80;61.20
13093;DHT22;6612;49.568;11.000;2022-12-18T10:04:17;0.80;61.10
13093;DHT22;6612;49.568;11.000;2022-12-18T10:06:48;0.80;61.80
13093;DHT22;6612;49.568;11.000;2022-12-18T10:09:26;0.90;61.30
13093;DHT22;6612;49.568;11.000;2022-12-18T10:12:02;0.90;61.30
13093;DHT22;6612;49.568;11.000;2022-12-18T10:14:36;1.00;61.50
13093;DHT22;6612;49.568;11.000;2022-12-18T10:17:14;1.00;61.40
13093;DHT22;6612;49.568;11.000;2022-12-18T10:19:49;1.10;61.50
13093;DHT22;6612;49.568;11.000;2022-12-18T10:22:43;1.20;61.70
13093;DHT22;6612;49.568;11.000;2022-12-18T10:25:21;1.30;61.80
13093;DHT22;6612;49.568;11.000;2022-12-18T10:27:53;1.40;62.40
13093;DHT22;6612;49.568;11.000;2022-12-18T10:30:22;1.60;63.10
13093;DHT22;6612;49.568;11.000;2022-12-18T10:32:49;1.80;63.70
13093;DHT22;6612;49.568;11.000;2022-12-18T10:35:19;1.90;63.70
13093;DHT22;6612;49.568;11.000;2022-12-18T10:38:07;2.20;63.80
13093;DHT22;6612;49.568;11.000;2022-12-18T10:40:49;2.40;63.40
13093;DHT22;6612;49.568;11.000;2022-12-18T10:43:21;2.60;63.20
13093;DHT22;6612;49.568;11.000;2022-12-18T10:46:12;2.70;62.70
13093;DHT22;6612;49.568;11.000;2022-12-18T10:48:48;2.90;62.20
13093;DHT22;6612;49.568;11.000;2022-12-18T10:51:22;3.10;62.30
13093;DHT22;6612;49.568;11.000;2022-12-18T10:53:54;3.10;60.90
13093;DHT22;6612;49.568;11.000;2022-12-18T10:56:24;3.20;60.00
13093;DHT22;6612;49.568;11.000;2022-12-18T10:58:57;3.20;60.00
13093;DHT22;6612;49.568;11.000;2022-12-18T11:01:24;3.30;59.30
13093;DHT22;6612;49.568;11.000;2022-12-18T11:04:01;3.20;58.90
13093;DHT22;6612;49.568;11.000;2022-12-18T11:06:29;3.20;58.40
13093;DHT22;6612;49.568;11.000;2022-12-18T11:09:04;3.10;58.20
13093;DHT22;6612;49.568;11.000;2022-12-18T11:11:33;3.00;58.00
13093;DHT22;6612;49.568;11.000;2022-12-18T11:14:03;2.90;57.50
13093;DHT22;6612;49.568;11.000;2022-12-18T11:16:33;2.80;57.70
13093;DHT22;6612;49.568;11.000;2022-12-18T11:19:21;2.70;58.00
13093;DHT22;6612;49.568;11.000;2022-12-18T11:21:50;2.60;58.00
13093;DHT22;6612;49.568;11.000;2022-12-18T11:24:20;2.50;58.00
13093;DHT22;6612;49.568;11.000;2022-12-18T11:26:53;2.40;57.90
13093;DHT22;6612;49.568;11.000;2022-12-18T11:29:24;2.30;58.00
13093;DHT22;6612;49.568;11.000;2022-12-18T11:35:00;2.20;58.10
13093;DHT22;6612;49.568;11.000;2022-12-18T11:37:29;2.20;58.40
13093;DHT22;6612;49.568;11.000;2022-12-18T11:40:00;2.10;58.50
13093;DHT22;6612;49.568;11.000;2022-12-18T11:42:34;2.10;58.50
13093;DHT22;6612;49.568;11.000;2022-12-18T11:45:17;2.10;58.60
13093;DHT22;6612;49.568;11.000;2022-12-18T11:47:49;2.10;58.70
13093;DHT22;6612;49.568;11.000;2022-12-18T11:50:21;2.00;58.70
13093;DHT22;6612;49.568;11.000;2022-12-18T11:52:50;2.10;58.80
13093;DHT22;6612;49.568;11.000;2022-12-18T11:55:26;2.00;58.70
13093;DHT22;6612;49.568;11.000;2022-12-18T11:58:00;2.00;58.30
13093;DHT22;6612;49.568;11.000;2022-12-18T12:00:30;2.00;58.50
13093;DHT22;6612;49.568;11.000;2022-12-18T12:06:02;2.00;58.40
13093;DHT22;6612;49.568;11.000;2022-12-18T12:08:39;2.00;58.40
13093;DHT22;6612;49.568;11.000;2022-12-18T12:11:15;2.10;58.50
13093;DHT22;6612;49.568;11.000;2022-12-18T12:14:13;2.00;58.60
13093;DHT22;6612;49.568;11.000;2022-12-18T12:16:49;2.00;58.40
13093;DHT22;6612;49.568;11.000;2022-12-18T12:19:29;2.00;58.60
13093;DHT22;6612;49.568;11.000;2022-12-18T12:22:03;2.00;58.90
13093;DHT22;6612;49.568;11.000;2022-12-18T12:24:39;2.00;58.90
13093;DHT22;6612;49.568;11.000;2022-12-18T12:27:18;2.00;59.00
13093;DHT22;6612;49.568;11.000;2022-12-18T12:29:57;2.00;59.00
13093;DHT22;6612;49.568;11.000;2022-12-18T12:32:39;2.00;59.00
13093;DHT22;6612;49.568;11.000;2022-12-18T12:35:19;2.00;59.20
13093;DHT22;6612;49.568;11.000;2022-12-18T12:37:58;2.10;59.30
13093;DHT22;6612;49.568;11.000;2022-12-18T12:40:28;2.10;59.40
13093;DHT22;6612;49.568;11.000;2022-12-18T12:42:59;2.10;59.50
13093;DHT22;6612;49.568;11.000;2022-12-18T12:45:44;2.20;59.60
13093;DHT22;6612;49.568;11.000;2022-12-18T12:48:19;2.30;59.70
13093;DHT22;6612;49.568;11.000;2022-12-18T12:50:47;2.30;59.60
13093;DHT22;6612;49.568;11.000;2022-12-18T12:53:25;2.30;59.70
13093;DHT22;6612;49.568;11.000;2022-12-18T12:55:53;2.40;59.80
13093;DHT22;6612;49.568;11.000;2022-12-18T12:58:30;2.40;59.80
13093;DHT22;6612;49.568;11.000;2022-12-18T13:01:08;2.50;59.70
13093;DHT22;6612;49.568;11.000;2022-12-18T13:03:46;2.60;59.70
13093;DHT22;6612;49.568;11.000;2022-12-18T13:06:23;2.60;59.50
13093;DHT22;6612;49.568;11.000;2022-12-18T13:08:56;2.60;59.50
13093;DHT22;6612;49.568;11.000;2022-12-18T13:11:32;2.60;59.40
13093;DHT22;6612;49.568;11.000;2022-12-18T13:14:21;2.70;59.40
13093;DHT22;6612;49.568;11.000;2022-12-18T13:16:50;2.70;59.50
13093;DHT22;6612;49.568;11.000;2022-12-18T13:19:22;2.70;59.30
13093;DHT22;6612;49.568;11.000;2022-12-18T13:21:54;2.70;59.20
13093;DHT22;6612;49.568;11.000;2022-12-18T13:24:25;2.70;59.10
13093;DHT22;6612;49.568;11.000;2022-12-18T13:26:53;2.70;59.10
13093;DHT22;6612;49.568;11.000;2022-12-18T13:29:42;2.70;59.10
13093;DHT22;6612;49.568;11.000;2022-12-18T13:32:24;2.70;58.90
13093;DHT22;6612;49.568;11.000;2022-12-18T13:37:52;2.70;58.80
13093;DHT22;6612;49.568;11.000;2022-12-18T13:43:36;2.60;58.40
13093;DHT22;6612;49.568;11.000;2022-12-18T13:46:20;2.60;58.40
13093;DHT22;6612;49.568;11.000;2022-12-18T13:48:55;2.60;58.30
13093;DHT22;6612;49.568;11.000;2022-12-18T13:51:23;2.50;58.30
13093;DHT22;6612;49.568;11.000;2022-12-18T13:53:53;2.40;58.40
13093;DHT22;6612;49.568;11.000;2022-12-18T13:56:23;2.50;58.40
13093;DHT22;6612;49.568;11.000;2022-12-18T13:59:12;2.40;58.40
13093;DHT22;6612;49.568;11.000;2022-12-18T14:01:48;2.40;58.40
13093;DHT22;6612;49.568;11.000;2022-12-18T14:04:23;2.40;58.40
13093;DHT22;6612;49.568;11.000;2022-12-18T14:06:52;2.40;58.40
13093;DHT22;6612;49.568;11.000;2022-12-18T14:09:23;2.40;58.50
13093;DHT22;6612;49.568;11.000;2022-12-18T14:11:51;2.30;58.40
13093;DHT22;6612;49.568;11.000;2022-12-18T14:14:42;2.40;58.50
13093;DHT22;6612;49.568;11.000;2022-12-18T14:17:10;2.30;58.50
13093;DHT22;6612;49.568;11.000;2022-12-18T14:19:43;2.30;58.50
13093;DHT22;6612;49.568;11.000;2022-12-18T14:22:15;2.30;58.40
13093;DHT22;6612;49.568;11.000;2022-12-18T14:24:43;2.20;58.30
13093;DHT22;6612;49.568;11.000;2022-12-18T14:27:21;2.20;58.40
13093;DHT22;6612;49.568;11.000;2022-12-18T14:29:48;2.20;58.10
13093;DHT22;6612;49.568;11.000;2022-12-18T14:32:17;2.30;58.30
13093;DHT22;6612;49.568;11.000;2022-12-18T14:34:47;2.20;58.30
13093;DHT22;6612;49.568;11.000;2022-12-18T14:37:16;2.10;58.40
13093;DHT22;6612;49.568;11.000;2022-12-18T14:39:56;2.10;58.30
13093;DHT22;6612;49.568;11.000;2022-12-18T14:42:24;2.10;58.20
13093;DHT22;6612;49.568;11.000;2022-12-18T14:47:52;2.00;57.90
13093;DHT22;6612;49.568;11.000;2022-12-18T14:50:21;2.00;57.90
13093;DHT22;6612;49.568;11.000;2022-12-18T14:52:48;2.00;57.80
13093;DHT22;6612;49.568;11.000;2022-12-18T14:55:16;1.90;57.80
13093;DHT22;6612;49.568;11.000;2022-12-18T14:57:43;1.90;57.80
13093;DHT22;6612;49.568;11.000;2022-12-18T15:00:16;1.80;57.80
13093;DHT22;6612;49.568;11.000;2022-12-18T15:02:45;1.80;57.80
13093;DHT22;6612;49.568;11.000;2022-12-18T15:05:19;1.70;57.70
13093;DHT22;6612;49.568;11.000;2022-12-18T15:07:49;1.70;57.60
13093;DHT22;6612;49.568;11.000;2022-12-18T15:10:19;1.70;57.70
13093;DHT22;6612;49.568;11.000;2022-12-18T15:12:47;1.60;57.60
13093;DHT22;6612;49.568;11.000;2022-12-18T15:15:46;1.60;57.70
13093;DHT22;6612;49.568;11.000;2022-12-18T15:18:15;1.60;57.70
13093;DHT22;6612;49.568;11.000;2022-12-18T15:20:44;1.50;57.60
13093;DHT22;6612;49.568;11.000;2022-12-18T15:23:25;1.50;57.70
13093;DHT22;6612;49.568;11.000;2022-12-18T15:25:57;1.40;57.60
13093;DHT22;6612;49.568;11.000;2022-12-18T15:28:26;1.40;57.60
13093;DHT22;6612;49.568;11.000;2022-12-18T15:31:00;1.30;57.60
13093;DHT22;6612;49.568;11.000;2022-12-18T15:33:32;1.30;57.70
13093;DHT22;6612;49.568;11.000;2022-12-18T15:36:00;1.20;57.60
13093;DHT22;6612;49.568;11.000;2022-12-18T15:38:29;1.20;57.70
13093;DHT22;6612;49.568;11.000;2022-12-18T15:40:57;1.20;57.80
13093;DHT22;6612;49.568;11.000;2022-12-18T15:43:25;1.20;57.80
13093;DHT22;6612;49.568;11.000;2022-12-18T15:46:02;1.10;57.80
13093;DHT22;6612;49.568;11.000;2022-12-18T15:48:30;1.10;57.90
13093;DHT22;6612;49.568;11.000;2022-12-18T15:50:59;1.10;57.80
13093;DHT22;6612;49.568;11.000;2022-12-18T15:53:30;1.00;57.80
13093;DHT22;6612;49.568;11.000;2022-12-18T15:55:59;1.00;58.00
13093;DHT22;6612;49.568;11.000;2022-12-18T15:58:44;1.00;58.60
13093;DHT22;6612;49.568;11.000;2022-12-18T16:01:12;1.00;58.00
13093;DHT22;6612;49.568;11.000;2022-12-18T16:03:39;1.00;58.10
13093;DHT22;6612;49.568;11.000;2022-12-18T16:06:06;1.00;58.10
13093;DHT22;6612;49.568;11.000;2022-12-18T16:08:34;0.90;58.10
13093;DHT22;6612;49.568;11.000;2022-12-18T16:11:01;0.90;58.10
13093;DHT22;6612;49.568;11.000;2022-12-18T16:13:28;0.90;58.10
13093;DHT22;6612;49.568;11.000;2022-12-18T16:15:55;0.90;58.10
13093;DHT22;6612;49.568;11.000;2022-12-18T16:18:22;0.90;58.10
13093;DHT22;6612;49.568;11.000;2022-12-18T16:20:50;0.80;58.00